Time;durP1;ratioP1;P1;durP2;ratioP2;P2;SDS_P1;SDS_P2;PMS_P1;PMS_P2;Temp;Humidity;BMP_temperature;BMP_pressure;BME280_temperature;BME280_humidity;BME280_pressure;Samples;Min_cycle;Max_cycle;Signal;HPM_P1;HPM_P2
2022/04/11 00:02:23;;;;;;;7.05;2.55;;;0.50;99.90;;;;;;4880580;29;20052;-62
2022/04/11 00:04:50;;;;;;;4.30;2.00;;;0.50;99.90;;;;;;4879919;29;20115;-62
2022/04/11 00:07:17;;;;;;;2.75;1.73;;;0.50;99.90;;;;;;4863174;29;20509;-62
2022/04/11 00:09:44;;;;;;;6.25;1.95;;;0.50;99.90;;;;;;4881720;29;20045;-62
2022/04/11 00:12:10;;;;;;;3.55;1.95;;;0.50;99.90;;;;;;4879791;29;20049;-62
2022/04/11 00:14:37;;;;;;;2.33;1.40;;;0.50;99.90;;;;;;4879643;29;20101;-62
2022/04/11 00:17:05;;;;;;;4.32;2.15;;;0.50;99.90;;;;;;4881990;29;20067;-63
2022/04/11 00:19:31;;;;;;;13.20;2.90;;;0.50;99.90;;;;;;4885298;29;20049;-62
2022/04/11 00:21:58;;;;;;;4.10;2.22;;;0.50;99.90;;;;;;4879449;29;20041;-62
2022/04/11 00:24:25;;;;;;;5.30;1.70;;;0.50;99.90;;;;;;4879598;29;20105;-63
2022/04/11 00:26:51;;;;;;;7.88;1.70;;;0.40;99.90;;;;;;4883779;29;20566;-62
2022/04/11 00:29:18;;;;;;;3.70;2.10;;;0.40;99.90;;;;;;4863211;29;20049;-62
2022/04/11 00:31:45;;;;;;;5.15;1.98;;;0.40;99.90;;;;;;4879299;29;20510;-62
2022/04/11 00:34:12;;;;;;;4.07;1.98;;;0.40;99.90;;;;;;4862745;29;20148;-62
2022/04/11 00:36:39;;;;;;;3.50;1.70;;;0.30;99.90;;;;;;4883157;29;20056;-62
2022/04/11 00:39:06;;;;;;;6.00;3.17;;;0.30;99.90;;;;;;4862517;29;20060;-62
2022/04/11 00:41:32;;;;;;;8.00;3.47;;;0.30;99.90;;;;;;4878793;29;20056;-62
2022/04/11 00:43:59;;;;;;;4.28;2.40;;;0.20;99.90;;;;;;4879316;29;20048;-62
2022/04/11 00:46:26;;;;;;;6.28;3.35;;;0.20;99.90;;;;;;4867950;29;20041;-62
2022/04/11 00:48:53;;;;;;;8.10;4.63;;;0.10;99.90;;;;;;4878988;29;20072;-62
2022/04/11 00:51:21;;;;;;;;;;;0.20;99.90;;;;;;4862387;29;20049;-62
2022/04/11 00:53:51;;;;;;;7.13;3.70;;;0.10;99.90;;;;;;4884000;29;19923;-63
2022/04/11 00:56:19;;;;;;;12.02;4.30;;;0.20;99.90;;;;;;4863242;29;20143;-62
2022/04/11 00:58:47;;;;;;;11.40;4.97;;;0.20;99.90;;;;;;4878926;29;20589;-63
2022/04/11 01:01:16;;;;;;;9.82;5.03;;;0.20;99.90;;;;;;4878745;29;20037;-62
2022/04/11 01:03:44;;;;;;;11.77;5.20;;;0.10;99.90;;;;;;4861971;29;20072;-62
2022/04/11 01:06:10;;;;;;;13.88;5.97;;;0.10;99.90;;;;;;4878917;29;20056;-62
2022/04/11 01:08:38;;;;;;;11.88;5.13;;;0.10;99.90;;;;;;4878691;29;20052;-62
2022/04/11 01:11:06;;;;;;;10.02;5.35;;;0.00;99.90;;;;;;4861418;29;20513;-62
2022/04/11 01:13:33;;;;;;;12.00;5.85;;;0.00;99.90;;;;;;4862067;29;20049;-62
2022/04/11 01:16:04;;;;;;;11.52;5.85;;;0.00;99.90;;;;;;4878715;29;20052;-62
2022/04/11 01:18:36;;;;;;;12.60;5.82;;;0.00;99.90;;;;;;4878558;29;20124;-62
2022/04/11 01:21:06;;;;;;;11.32;5.72;;;0.00;99.90;;;;;;4863317;29;20057;-62
2022/04/11 01:23:33;;;;;;;11.98;5.40;;;0.10;99.90;;;;;;4861664;29;20049;-62
2022/04/11 01:26:00;;;;;;;8.27;3.85;;;0.00;99.90;;;;;;4878598;29;20053;-62
2022/04/11 01:28:28;;;;;;;11.50;5.15;;;0.00;99.90;;;;;;4861836;29;20144;-62
2022/04/11 01:30:56;;;;;;;9.43;5.13;;;0.00;99.90;;;;;;4879954;29;20045;-62
2022/04/11 01:33:26;;;;;;;9.32;4.63;;;0.00;99.90;;;;;;4861371;29;20060;-62
2022/04/11 01:35:56;;;;;;;7.95;4.50;;;-0.10;99.90;;;;;;4861653;29;20143;-62
2022/04/11 01:38:23;;;;;;;7.68;3.97;;;-0.20;99.90;;;;;;4863598;29;20446;-62
2022/04/11 01:40:53;;;;;;;9.65;5.28;;;-0.20;99.90;;;;;;4861065;29;20247;-62
2022/04/11 01:43:22;;;;;;;8.65;5.28;;;-0.20;99.90;;;;;;4861619;29;20063;-62
2022/04/11 01:45:49;;;;;;;10.20;5.93;;;-0.20;99.90;;;;;;4861306;29;20418;-62
2022/04/11 01:48:24;;;;;;;10.82;5.63;;;-0.20;99.90;;;;;;4861168;29;20057;-62
2022/04/11 01:50:51;;;;;;;10.63;6.25;;;-0.20;99.90;;;;;;4860948;29;20055;-62
2022/04/11 01:53:19;;;;;;;12.00;6.70;;;-0.20;99.90;;;;;;4878134;29;20509;-62
2022/04/11 01:55:46;;;;;;;11.52;6.65;;;-0.20;99.90;;;;;;4861593;29;20044;-62
2022/04/11 01:58:14;;;;;;;12.02;5.93;;;-0.20;99.90;;;;;;4861236;29;20056;-62
2022/04/11 02:00:41;;;;;;;11.25;6.15;;;-0.20;99.90;;;;;;4877259;29;20037;-62
2022/04/11 02:03:09;;;;;;;12.30;6.70;;;-0.20;99.90;;;;;;4878218;29;20392;-62
2022/04/11 02:05:37;;;;;;;14.07;5.95;;;-0.30;99.90;;;;;;4865049;29;20395;-62
2022/04/11 02:08:05;;;;;;;;;;;-0.20;99.90;;;;;;4861628;29;20455;-62
2022/04/11 02:10:54;;;;;;;10.77;5.75;;;-0.20;99.90;;;;;;4907911;23;19927;-67
2022/04/11 02:13:21;;;;;;;13.27;5.90;;;-0.20;99.90;;;;;;4897517;29;20072;-68
2022/04/11 02:16:14;;;;;;;11.23;5.22;;;0.20;99.90;;;;;;4915564;29;20078;-67
2022/04/11 02:18:40;;;;;;;10.15;4.80;;;-0.20;99.90;;;;;;4898378;29;20054;-68
2022/04/11 02:21:07;;;;;;;7.85;4.88;;;-0.10;99.90;;;;;;4896549;29;20425;-67
2022/04/11 02:23:34;;;;;;;7.13;4.15;;;-0.10;99.90;;;;;;4915218;29;20059;-68
2022/04/11 02:26:02;;;;;;;8.65;4.63;;;-0.10;99.90;;;;;;4896956;29;20398;-68
2022/04/11 02:28:29;;;;;;;10.68;5.28;;;-0.10;99.90;;;;;;4900763;29;20513;-68
2022/04/11 02:30:56;;;;;;;8.02;5.03;;;-0.10;99.90;;;;;;4897722;29;20048;-68
2022/04/11 02:33:23;;;;;;;;;;;-0.10;99.90;;;;;;4898623;29;20090;-68
2022/04/11 02:35:50;;;;;;;10.07;4.90;;;-0.20;99.90;;;;;;4897301;29;19965;-68
2022/04/11 02:38:18;;;;;;;10.85;5.22;;;-0.20;99.90;;;;;;4897905;29;20147;-68
2022/04/11 02:40:46;;;;;;;11.77;5.30;;;-0.30;99.90;;;;;;4897619;29;20067;-68
2022/04/11 02:43:16;;;;;;;10.93;4.97;;;-0.40;99.90;;;;;;4896758;29;20040;-67
2022/04/11 02:45:48;;;;;;;8.70;5.18;;;-0.40;99.90;;;;;;4901937;29;20051;-67
2022/04/11 02:48:22;;;;;;;8.63;5.10;;;-0.40;99.90;;;;;;4901963;29;20044;-68
2022/04/11 02:50:54;;;;;;;7.80;4.50;;;-0.40;99.90;;;;;;4917101;29;20044;-67
2022/04/11 02:53:28;;;;;;;8.27;4.32;;;-0.40;99.90;;;;;;4901701;29;20509;-67
2022/04/11 02:55:54;;;;;;;13.02;4.90;;;-0.40;99.90;;;;;;4901609;29;20048;-68
2022/04/11 02:58:21;;;;;;;9.32;5.18;;;-0.40;99.90;;;;;;4901709;29;20509;-70
2022/04/11 03:00:48;;;;;;;6.95;3.92;;;-0.40;99.90;;;;;;4897531;29;20514;-70
2022/04/11 03:03:16;;;;;;;9.40;4.70;;;-0.30;99.90;;;;;;4900046;29;20226;-70
2022/04/11 03:05:44;;;;;;;8.32;5.28;;;-0.30;99.90;;;;;;4901505;29;20078;-70
2022/04/11 03:08:11;;;;;;;8.85;5.05;;;-0.30;99.90;;;;;;4901570;29;20498;-69
2022/04/11 03:10:40;;;;;;;8.40;4.88;;;-0.20;99.90;;;;;;4899861;29;20552;-67
2022/04/11 03:13:07;;;;;;;;;;;-0.20;99.90;;;;;;4901777;29;20436;-69
2022/04/11 03:15:35;;;;;;;11.90;4.75;;;-0.20;99.90;;;;;;4901465;29;19961;-69
2022/04/11 03:18:02;;;;;;;6.50;3.85;;;-0.20;99.90;;;;;;4910364;29;20036;-69
2022/04/11 03:20:31;;;;;;;6.43;4.57;;;-0.20;99.90;;;;;;4900258;29;20523;-69
2022/04/11 03:22:58;;;;;;;;;;;-0.30;99.90;;;;;;4901309;29;20040;-69
2022/04/11 03:25:29;;;;;;;6.88;4.00;;;-0.20;99.90;;;;;;4899787;29;19923;-69
2022/04/11 03:27:56;;;;;;;8.25;4.30;;;-0.30;99.90;;;;;;4917433;29;20068;-69
2022/04/11 03:30:27;;;;;;;6.95;4.95;;;-0.40;99.90;;;;;;4899632;29;20071;-69
2022/04/11 03:32:55;;;;;;;8.75;4.40;;;-0.30;99.90;;;;;;4900686;29;20046;-69
2022/04/11 03:35:24;;;;;;;8.80;4.32;;;-0.30;99.90;;;;;;4899836;29;20039;-69
2022/04/11 03:37:51;;;;;;;7.68;3.97;;;-0.30;99.90;;;;;;4900457;29;20051;-69
2022/04/11 03:40:22;;;;;;;8.32;4.65;;;-0.30;99.90;;;;;;4897829;29;20697;-69
2022/04/11 03:42:50;;;;;;;8.93;4.20;;;-0.40;99.90;;;;;;4896382;29;20047;-69
2022/04/11 03:45:17;;;;;;;8.15;4.40;;;-0.40;99.90;;;;;;4895828;29;20048;-69
2022/04/11 03:47:46;;;;;;;12.80;4.97;;;-0.40;99.90;;;;;;4898861;29;20131;-69
2022/04/11 03:50:16;;;;;;;9.85;5.13;;;-0.40;99.90;;;;;;4899949;29;20044;-68
2022/04/11 03:52:44;;;;;;;7.70;4.63;;;-0.50;99.90;;;;;;4897086;29;20056;-69
2022/04/11 03:55:12;;;;;;;8.50;5.00;;;-0.50;99.90;;;;;;4899247;29;20044;-69
2022/04/11 03:57:43;;;;;;;10.00;4.72;;;-0.50;99.90;;;;;;4897697;29;20265;-68
2022/04/11 04:00:11;;;;;;;9.82;4.18;;;-0.50;99.90;;;;;;4900002;29;20081;-69
2022/04/11 04:03:07;;;;;;;8.88;4.55;;;-0.50;99.90;;;;;;4896491;29;20139;-68
2022/04/11 04:05:45;;;;;;;10.88;5.80;;;-0.50;99.90;;;;;;4893542;29;20071;-68
2022/04/11 04:08:17;;;;;;;9.05;4.78;;;-0.50;99.90;;;;;;4900656;29;20048;-69
2022/04/11 04:10:53;;;;;;;9.50;5.22;;;-0.50;99.90;;;;;;4899908;29;20528;-68
2022/04/11 04:13:21;;;;;;;9.55;5.15;;;-0.60;99.90;;;;;;4899375;29;20444;-68
2022/04/11 04:15:48;;;;;;;8.75;5.25;;;-0.60;99.90;;;;;;4899382;29;20040;-68
2022/04/11 04:18:16;;;;;;;;;;;-0.50;99.90;;;;;;4900483;29;20390;-69
2022/04/11 04:20:43;;;;;;;10.85;5.63;;;-0.50;99.90;;;;;;4898829;29;20438;-70
2022/04/11 04:23:11;;;;;;;10.93;6.05;;;-0.60;99.90;;;;;;4900173;29;20077;-69
2022/04/11 04:25:38;;;;;;;9.15;5.45;;;-0.60;99.90;;;;;;4900093;29;20066;-69
2022/04/11 04:28:05;;;;;;;12.32;5.40;;;-0.50;99.90;;;;;;4898817;29;20044;-69
2022/04/11 04:30:34;;;;;;;10.73;5.57;;;-0.50;99.90;;;;;;4916481;29;20064;-69
2022/04/11 04:33:01;;;;;;;10.07;5.25;;;-0.50;99.90;;;;;;4899790;29;20655;-70
2022/04/11 04:35:29;;;;;;;8.13;5.05;;;-0.40;99.90;;;;;;4900011;29;20052;-69
2022/04/11 04:38:00;;;;;;;9.45;5.45;;;-0.40;99.90;;;;;;4899263;29;20402;-69
2022/04/11 04:40:32;;;;;;;10.10;5.22;;;-0.40;99.90;;;;;;4880384;29;20053;-69
2022/04/11 04:42:59;;;;;;;7.32;3.65;;;-0.40;99.90;;;;;;4896549;29;20048;-69
2022/04/11 04:45:26;;;;;;;9.60;4.95;;;-0.30;99.90;;;;;;4898173;29;20076;-69
2022/04/11 04:48:12;;;;;;;8.93;5.28;;;-0.30;99.90;;;;;;4897765;29;20052;-69
2022/04/11 04:50:40;;;;;;;11.50;5.35;;;-0.30;99.90;;;;;;4899309;29;20048;-69
2022/04/11 04:53:11;;;;;;;8.20;5.57;;;-0.30;99.90;;;;;;4899632;29;20080;-69
2022/04/11 04:55:37;;;;;;;5.35;3.58;;;-0.20;99.90;;;;;;4898394;29;20044;-69
2022/04/11 04:58:06;;;;;;;10.88;5.90;;;-0.20;99.90;;;;;;4899355;29;20115;-69
2022/04/11 05:00:33;;;;;;;9.98;5.53;;;-0.20;99.90;;;;;;4899074;29;20048;-69
2022/04/11 05:03:00;;;;;;;8.48;4.35;;;-0.10;99.90;;;;;;4899335;29;20063;-69
2022/04/11 05:05:27;;;;;;;9.15;5.07;;;0.00;99.90;;;;;;4913994;29;20534;-69
2022/04/11 05:07:57;;;;;;;10.10;5.15;;;0.00;99.90;;;;;;4899285;29;20043;-69
2022/04/11 05:10:28;;;;;;;8.95;5.30;;;0.00;99.90;;;;;;4898699;29;20074;-69
2022/04/11 05:12:55;;;;;;;10.00;5.30;;;0.10;99.90;;;;;;4895813;29;20518;-69
2022/04/11 05:15:23;;;;;;;10.70;5.05;;;0.10;99.90;;;;;;4898941;29;20047;-69
2022/04/11 05:18:00;;;;;;;9.43;4.95;;;0.20;99.90;;;;;;4899263;29;20075;-69
2022/04/11 05:20:27;;;;;;;8.35;4.82;;;0.30;99.90;;;;;;4877521;29;20548;-69
2022/04/11 05:22:54;;;;;;;;;;;0.30;99.90;;;;;;4898001;29;20087;-69
2022/04/11 05:25:26;;;;;;;10.45;5.03;;;0.40;99.90;;;;;;4898518;29;19934;-69
2022/04/11 05:27:53;;;;;;;9.05;5.30;;;0.50;99.90;;;;;;4898442;29;20086;-69
2022/04/11 05:30:20;;;;;;;12.95;5.57;;;0.60;99.90;;;;;;4898623;29;20056;-69
2022/04/11 05:32:49;;;;;;;11.20;6.35;;;0.60;99.90;;;;;;4897351;29;20048;-69
2022/04/11 05:35:16;;;;;;;13.60;6.18;;;0.60;99.90;;;;;;4897811;29;20056;-69
2022/04/11 05:37:45;;;;;;;11.32;5.53;;;0.70;99.90;;;;;;4897604;29;20052;-69
2022/04/11 05:40:13;;;;;;;11.77;5.90;;;0.80;99.90;;;;;;4897676;29;20044;-69
2022/04/11 05:42:42;;;;;;;12.82;6.75;;;0.90;99.90;;;;;;4898489;29;20134;-69
2022/04/11 05:45:09;;;;;;;13.43;7.07;;;1.00;99.90;;;;;;4898534;29;20044;-69
2022/04/11 05:47:37;;;;;;;8.38;5.47;;;1.00;99.90;;;;;;4898655;29;20138;-69
2022/04/11 05:50:05;;;;;;;10.35;5.45;;;1.10;99.90;;;;;;4896854;29;20100;-69
2022/04/11 05:52:31;;;;;;;;;;;1.10;99.90;;;;;;4898906;29;20378;-69
2022/04/11 05:54:58;;;;;;;11.23;5.25;;;1.10;99.90;;;;;;4898303;29;20021;-69
2022/04/11 05:57:25;;;;;;;12.38;5.60;;;1.10;99.90;;;;;;4898041;29;20157;-69
2022/04/11 05:59:52;;;;;;;11.27;5.22;;;1.10;99.90;;;;;;4897407;29;20484;-69
2022/04/11 06:02:19;;;;;;;9.18;4.18;;;1.10;99.90;;;;;;4898297;29;20044;-69
2022/04/11 06:04:46;;;;;;;8.45;5.32;;;1.00;99.90;;;;;;4898421;29;20048;-69
2022/04/11 06:07:12;;;;;;;9.00;5.85;;;1.00;99.90;;;;;;4897234;29;20055;-69
2022/04/11 06:09:42;;;;;;;11.27;6.60;;;1.20;99.90;;;;;;4897528;29;20386;-69
2022/04/11 06:12:13;;;;;;;12.48;6.53;;;1.30;99.90;;;;;;4898277;29;20100;-69
2022/04/11 06:14:43;;;;;;;11.95;5.90;;;1.30;99.90;;;;;;4894172;29;20135;-69
2022/04/11 06:17:09;;;;;;;10.02;6.00;;;1.30;99.90;;;;;;4897833;29;20051;-69
2022/04/11 06:19:36;;;;;;;10.55;5.88;;;1.40;99.90;;;;;;4897843;29;20054;-69
2022/04/11 06:22:03;;;;;;;10.57;5.53;;;1.40;99.90;;;;;;4915168;29;20489;-69
2022/04/11 06:24:30;;;;;;;9.48;5.95;;;1.40;99.90;;;;;;4897027;29;20039;-69
2022/04/11 06:26:58;;;;;;;9.68;4.90;;;1.40;99.90;;;;;;4898036;29;20513;-69
2022/04/11 06:29:25;;;;;;;5.90;3.72;;;1.40;99.90;;;;;;4897657;29;20412;-69
2022/04/11 06:31:52;;;;;;;6.50;3.63;;;1.60;99.90;;;;;;4897308;29;20131;-69
2022/04/11 06:34:27;;;;;;;8.05;4.75;;;1.60;99.90;;;;;;4890476;29;20044;-69
2022/04/11 06:36:53;;;;;;;8.02;4.88;;;1.70;99.90;;;;;;4897916;29;20060;-69
2022/04/11 06:39:20;;;;;;;9.32;4.63;;;1.80;99.90;;;;;;4896954;29;20509;-69
2022/04/11 06:41:52;;;;;;;8.43;4.43;;;1.90;99.90;;;;;;4893469;29;20059;-69
2022/04/11 06:44:21;;;;;;;6.43;4.20;;;2.00;99.90;;;;;;4898186;29;20099;-68
2022/04/11 06:46:55;;;;;;;11.35;5.03;;;2.00;99.90;;;;;;4898067;29;20046;-69
2022/04/11 06:49:25;;;;;;;9.23;4.40;;;2.10;99.90;;;;;;4896582;29;20457;-68
2022/04/11 06:51:56;;;;;;;7.10;4.55;;;2.00;99.90;;;;;;4897849;29;20461;-68
2022/04/11 06:54:23;;;;;;;7.97;4.25;;;2.10;99.90;;;;;;4914957;29;20055;-68
2022/04/11 06:56:50;;;;;;;8.73;4.13;;;2.30;99.90;;;;;;4908679;29;20045;-68
2022/04/11 06:59:16;;;;;;;7.63;3.97;;;2.40;99.90;;;;;;4913157;29;20059;-68
2022/04/11 07:01:43;;;;;;;5.68;3.67;;;2.60;99.90;;;;;;4897903;29;20048;-68
2022/04/11 07:04:10;;;;;;;8.35;3.75;;;2.70;99.90;;;;;;4914911;29;20092;-68
2022/04/11 07:06:37;;;;;;;8.23;3.60;;;2.90;99.90;;;;;;4909753;29;20096;-68
2022/04/11 07:09:03;;;;;;;7.10;3.50;;;3.00;99.90;;;;;;4914415;29;20059;-68
2022/04/11 07:11:33;;;;;;;5.10;3.20;;;3.20;99.90;;;;;;4914254;29;20497;-68
2022/04/11 07:14:00;;;;;;;5.60;3.25;;;3.10;99.90;;;;;;4909863;29;20059;-68
2022/04/11 07:16:26;;;;;;;5.97;3.50;;;3.20;99.90;;;;;;4914619;29;20044;-68
2022/04/11 07:18:53;;;;;;;9.13;4.03;;;3.40;99.90;;;;;;4914701;29;20123;-68
2022/04/11 07:21:20;;;;;;;4.00;2.38;;;3.60;99.90;;;;;;4914593;29;20393;-68
2022/04/11 07:23:47;;;;;;;5.85;2.80;;;3.70;99.90;;;;;;4909918;29;20100;-68
2022/04/11 07:26:13;;;;;;;8.63;3.88;;;3.70;99.90;;;;;;4912632;29;20048;-68
2022/04/11 07:28:40;;;;;;;5.63;3.58;;;3.70;99.90;;;;;;4914673;29;20044;-68
2022/04/11 07:31:07;;;;;;;5.50;3.30;;;3.80;99.90;;;;;;4917636;29;20044;-68
2022/04/11 07:33:34;;;;;;;3.33;2.70;;;4.00;99.90;;;;;;4914558;29;20040;-67
2022/04/11 07:36:01;;;;;;;4.75;3.13;;;4.30;99.90;;;;;;4917946;29;20052;-68
2022/04/11 07:38:29;;;;;;;7.40;4.13;;;4.40;99.90;;;;;;4917842;29;20052;-67
2022/04/11 07:40:56;;;;;;;;;;;4.60;99.90;;;;;;4917640;29;20123;-68
2022/04/11 07:43:23;;;;;;;4.63;2.80;;;4.60;99.90;;;;;;4910646;29;19923;-67
2022/04/11 07:45:50;;;;;;;;;;;4.70;99.90;;;;;;4918490;29;20047;-68
2022/04/11 07:48:17;;;;;;;4.93;3.05;;;4.70;99.90;;;;;;4917728;29;19969;-68
2022/04/11 07:50:43;;;;;;;5.47;2.85;;;4.80;99.90;;;;;;4911622;29;20040;-68
2022/04/11 07:53:10;;;;;;;2.72;1.73;;;4.70;99.90;;;;;;4915313;29;20063;-67
2022/04/11 07:55:37;;;;;;;4.45;2.63;;;4.80;99.90;;;;;;4917595;29;20457;-67
2022/04/11 07:58:04;;;;;;;4.45;2.83;;;4.90;99.90;;;;;;4917683;29;20092;-67
2022/04/11 08:00:31;;;;;;;5.05;2.05;;;4.90;99.90;;;;;;4910402;29;20047;-68
2022/04/11 08:02:58;;;;;;;3.65;2.70;;;5.00;99.90;;;;;;4917344;29;20401;-68
2022/04/11 08:05:25;;;;;;;4.85;2.80;;;5.20;99.90;;;;;;4917167;29;20052;-68
2022/04/11 08:07:52;;;;;;;5.07;2.95;;;5.30;99.90;;;;;;4917477;29;20056;-68
2022/04/11 08:10:21;;;;;;;8.55;2.90;;;5.40;99.90;;;;;;4914161;23;20472;-64
2022/04/11 08:12:57;;;;;;;3.88;2.58;;;5.40;99.90;;;;;;4912154;29;20107;-64
2022/04/11 08:15:26;;;;;;;4.88;2.03;;;5.70;99.90;;;;;;4935427;29;20048;-64
2022/04/11 08:17:56;;;;;;;5.65;2.80;;;5.70;99.90;;;;;;4935997;29;20058;-64
2022/04/11 08:20:24;;;;;;;4.65;2.50;;;5.80;99.90;;;;;;4908128;29;20037;-65
2022/04/11 08:22:51;;;;;;;6.68;2.40;;;6.00;99.90;;;;;;4897849;29;20045;-65
2022/04/11 08:25:18;;;;;;;3.00;2.20;;;6.20;99.90;;;;;;4898502;29;20100;-65
2022/04/11 08:27:46;;;;;;;5.43;1.90;;;6.40;99.90;;;;;;4880280;29;20418;-64
2022/04/11 08:30:13;;;;;;;2.75;2.35;;;6.40;99.90;;;;;;4897414;29;20052;-65
2022/04/11 08:32:48;;;;;;;3.63;2.45;;;6.60;99.90;;;;;;4897850;29;20048;-64
2022/04/11 08:35:17;;;;;;;3.92;2.30;;;6.70;99.90;;;;;;4898214;29;20049;-65
2022/04/11 08:37:45;;;;;;;5.55;2.13;;;6.80;99.90;;;;;;4896871;29;20096;-64
2022/04/11 08:40:15;;;;;;;;;;;7.00;99.90;;;;;;4897726;29;20060;-64
2022/04/11 08:42:44;;;;;;;3.58;2.35;;;6.90;99.90;;;;;;4897691;29;19923;-65
2022/04/11 08:45:13;;;;;;;4.13;2.25;;;6.90;99.90;;;;;;4897863;29;20079;-65
2022/04/11 08:47:41;;;;;;;3.88;2.17;;;7.10;99.90;;;;;;4896946;29;20072;-65
2022/04/11 08:50:09;;;;;;;5.88;2.28;;;7.30;99.90;;;;;;4897252;29;20063;-65
2022/04/11 08:52:37;;;;;;;5.05;2.20;;;7.30;99.90;;;;;;4897472;29;20052;-65
2022/04/11 08:55:04;;;;;;;;;;;7.40;99.90;;;;;;4897105;29;20454;-64
2022/04/11 08:57:31;;;;;;;5.25;2.13;;;7.50;99.90;;;;;;4897291;29;19995;-65
2022/04/11 09:00:09;;;;;;;4.00;2.28;;;7.50;99.90;;;;;;4897265;29;20048;-65
2022/04/11 09:02:36;;;;;;;3.17;2.10;;;7.80;99.90;;;;;;4897372;29;20494;-65
2022/04/11 09:05:04;;;;;;;3.65;2.13;;;8.00;99.90;;;;;;4896428;29;20494;-65
2022/04/11 09:07:51;;;;;;;3.75;1.80;;;8.00;99.90;;;;;;4897346;29;20048;-65
2022/04/11 09:10:22;;;;;;;3.45;1.92;;;8.00;99.90;;;;;;4896898;29;20509;-65
2022/04/11 09:12:51;;;;;;;7.93;1.80;;;8.20;99.90;;;;;;4896252;29;20100;-65
2022/04/11 09:15:19;;;;;;;2.55;1.75;;;8.30;99.90;;;;;;4897157;29;20136;-64
2022/04/11 09:17:47;;;;;;;7.82;1.80;;;8.20;99.90;;;;;;4897266;29;20410;-65
2022/04/11 09:20:15;;;;;;;9.35;1.77;;;8.20;99.90;;;;;;4896042;29;20516;-65
2022/04/11 09:22:42;;;;;;;3.88;1.40;;;8.30;99.90;;;;;;4896908;29;20096;-65
2022/04/11 09:25:20;;;;;;;3.88;2.20;;;8.50;99.90;;;;;;4897211;29;20048;-65
2022/04/11 09:27:48;;;;;;;3.13;1.83;;;8.60;99.90;;;;;;4896593;29;20052;-65
2022/04/11 09:30:24;;;;;;;3.83;1.60;;;8.80;99.90;;;;;;4896229;29;20048;-65
2022/04/11 09:33:04;;;;;;;2.17;1.40;;;8.80;99.90;;;;;;4896977;29;20068;-64
2022/04/11 09:35:44;;;;;;;3.85;1.52;;;8.80;99.90;;;;;;4896880;29;20532;-64
2022/04/11 09:38:16;;;;;;;2.40;1.30;;;8.90;99.90;;;;;;4877214;29;20529;-65
2022/04/11 09:40:48;;;;;;;1.85;1.40;;;8.90;99.90;;;;;;4896454;29;20055;-65
2022/04/11 09:43:17;;;;;;;3.30;1.30;;;9.10;99.90;;;;;;4895531;29;20048;-65
2022/04/11 09:45:49;;;;;;;2.95;1.63;;;9.10;99.90;;;;;;4895549;29;20049;-65
2022/04/11 09:48:19;;;;;;;5.03;1.30;;;9.10;99.90;;;;;;4896561;29;20100;-65
2022/04/11 09:50:47;;;;;;;4.97;1.58;;;9.10;99.90;;;;;;4896349;29;20450;-65
2022/04/11 09:53:21;;;;;;;1.85;1.20;;;9.30;99.90;;;;;;4896321;29;20048;-65
2022/04/11 09:55:50;;;;;;;1.38;1.00;;;9.40;99.90;;;;;;4895099;29;20506;-66
2022/04/11 09:58:22;;;;;;;1.63;1.08;;;9.50;99.90;;;;;;4896751;29;20409;-65
2022/04/11 10:00:50;;;;;;;2.05;1.05;;;9.50;99.00;;;;;;4896247;29;20493;-65
2022/04/11 10:03:20;;;;;;;2.90;1.40;;;9.70;98.90;;;;;;4896166;29;20055;-65
2022/04/11 10:05:47;;;;;;;5.47;1.60;;;9.90;97.80;;;;;;4891067;29;20052;-63
2022/04/11 10:08:14;;;;;;;5.78;1.70;;;10.10;98.50;;;;;;4896337;29;20108;-63
2022/04/11 10:10:42;;;;;;;4.57;1.48;;;10.20;98.70;;;;;;4895916;29;20108;-63
2022/04/11 10:13:14;;;;;;;3.50;1.17;;;10.20;96.60;;;;;;4895799;29;20520;-63
2022/04/11 10:15:43;;;;;;;1.77;1.25;;;10.40;97.80;;;;;;4896621;29;20056;-63
2022/04/11 10:18:14;;;;;;;1.70;1.30;;;10.50;97.90;;;;;;4896138;29;20048;-63
2022/04/11 10:20:45;;;;;;;1.98;1.25;;;10.70;96.00;;;;;;4895231;29;20052;-63
2022/04/11 10:23:37;;;;;;;4.72;1.52;;;10.40;92.90;;;;;;4889204;29;20084;-63
2022/04/11 10:26:17;;;;;;;1.92;1.20;;;10.40;94.10;;;;;;4896385;29;20055;-63
2022/04/11 10:28:53;;;;;;;2.90;1.90;;;10.70;94.60;;;;;;4895912;29;20040;-63
2022/04/11 10:31:34;;;;;;;2.50;1.27;;;10.90;93.60;;;;;;4895648;29;20044;-63
2022/04/11 10:34:01;;;;;;;3.80;1.60;;;11.00;93.80;;;;;;4896091;29;20072;-63
2022/04/11 10:36:55;;;;;;;6.05;1.60;;;11.00;93.80;;;;;;4895218;29;20131;-63
2022/04/11 10:39:24;;;;;;;5.47;1.20;;;11.00;93.50;;;;;;4895852;29;20056;-63
2022/04/11 10:41:56;;;;;;;2.33;1.30;;;10.90;94.30;;;;;;4896129;29;20127;-63
2022/04/11 10:44:56;;;;;;;2.17;1.38;;;11.00;94.00;;;;;;4896182;29;20049;-65
2022/04/11 10:47:31;;;;;;;1.92;1.30;;;10.90;93.00;;;;;;4895602;29;20124;-65
2022/04/11 10:49:58;;;;;;;2.08;1.27;;;11.10;96.00;;;;;;4895661;29;20051;-65
2022/04/11 10:52:33;;;;;;;2.38;1.15;;;11.10;95.70;;;;;;4896100;29;20105;-65
2022/04/11 10:55:12;;;;;;;4.90;1.17;;;11.30;93.70;;;;;;4895096;29;20044;-65
2022/04/11 10:57:56;;;;;;;3.97;1.25;;;11.50;94.40;;;;;;4889954;29;20498;-64
2022/04/11 11:00:26;;;;;;;1.75;1.17;;;11.60;94.10;;;;;;4895366;29;20056;-65
2022/04/11 11:02:53;;;;;;;1.85;1.10;;;11.70;92.20;;;;;;4894882;29;20100;-65
2022/04/11 11:05:38;;;;;;;1.40;1.00;;;11.70;90.90;;;;;;4898607;29;20052;-65
2022/04/11 11:08:14;;;;;;;2.25;1.02;;;11.80;90.30;;;;;;4899684;29;20588;-65
2022/04/11 11:10:44;;;;;;;1.63;1.15;;;11.90;89.70;;;;;;4898310;29;20112;-65
2022/04/11 11:13:30;;;;;;;1.42;1.33;;;11.90;88.80;;;;;;4897436;29;20056;-65
2022/04/11 11:15:59;;;;;;;6.15;1.33;;;12.00;87.70;;;;;;4899553;29;20585;-65
2022/04/11 11:18:26;;;;;;;1.90;0.98;;;12.10;86.00;;;;;;4899211;29;20053;-65
2022/04/11 11:20:56;;;;;;;2.05;1.10;;;12.10;88.00;;;;;;4898287;29;20462;-63
2022/04/11 11:23:31;;;;;;;1.75;1.10;;;12.30;90.00;;;;;;4899028;29;20055;-63
2022/04/11 11:26:12;;;;;;;1.77;1.15;;;12.40;86.00;;;;;;4899364;29;20052;-65
2022/04/11 11:28:43;;;;;;;2.10;1.50;;;12.50;85.10;;;;;;4898746;29;20138;-63
2022/04/11 11:31:12;;;;;;;4.53;1.27;;;12.40;85.70;;;;;;4898660;29;20048;-65
2022/04/11 11:33:50;;;;;;;2.70;0.95;;;12.50;85.70;;;;;;4898927;29;20049;-63
2022/04/11 11:36:26;;;;;;;1.35;1.00;;;12.50;81.90;;;;;;4899245;29;20458;-65
2022/04/11 11:38:53;;;;;;;2.92;0.77;;;12.50;83.90;;;;;;4898482;29;20417;-63
2022/04/11 11:41:20;;;;;;;2.25;1.13;;;12.70;83.90;;;;;;4898462;29;20167;-63
2022/04/11 11:43:48;;;;;;;3.88;1.20;;;12.70;82.00;;;;;;4899114;29;20045;-63
2022/04/11 11:46:14;;;;;;;2.50;0.82;;;12.80;80.00;;;;;;4897748;29;20040;-63
2022/04/11 11:48:41;;;;;;;1.33;0.80;;;12.80;78.80;;;;;;4882515;29;20151;-63
2022/04/11 11:51:08;;;;;;;2.10;0.77;;;12.90;76.50;;;;;;4898430;29;20053;-63
2022/04/11 11:53:43;;;;;;;4.47;0.80;;;12.90;80.20;;;;;;4898639;29;20056;-63
2022/04/11 11:56:10;;;;;;;2.60;0.73;;;13.00;77.20;;;;;;4897750;29;20049;-63
2022/04/11 11:58:40;;;;;;;1.60;0.65;;;13.20;78.80;;;;;;4898542;29;20516;-63
2022/04/11 12:01:12;;;;;;;1.33;0.80;;;13.30;75.80;;;;;;4898373;29;20490;-63
2022/04/11 12:06:31;;;;;;;2.63;0.88;;;13.20;78.30;;;;;;4881796;29;20450;-63
2022/04/11 12:09:03;;;;;;;1.33;0.77;;;13.40;74.20;;;;;;4898391;29;20395;-63
2022/04/11 12:11:31;;;;;;;1.65;0.70;;;13.50;76.60;;;;;;4898118;29;20151;-63
2022/04/11 12:14:07;;;;;;;;;;;13.30;75.20;;;;;;4897905;29;20447;-63
2022/04/11 12:16:38;;;;;;;1.17;0.98;;;13.50;77.60;;;;;;4891341;29;19957;-63
2022/04/11 12:19:06;;;;;;;2.00;0.93;;;13.70;75.30;;;;;;4898361;29;20131;-63
2022/04/11 12:21:38;;;;;;;2.15;0.88;;;13.70;75.50;;;;;;4896364;29;20131;-63
2022/04/11 12:24:07;;;;;;;2.25;0.90;;;13.80;77.80;;;;;;4881310;29;20494;-63
2022/04/11 12:26:45;;;;;;;4.25;1.10;;;13.90;75.20;;;;;;4898250;29;20161;-63
2022/04/11 12:29:14;;;;;;;1.85;0.90;;;13.90;75.30;;;;;;4897179;29;20052;-63
2022/04/11 12:31:58;;;;;;;1.42;0.70;;;13.90;76.00;;;;;;4880639;29;20043;-63
2022/04/11 12:34:37;;;;;;;1.55;0.88;;;14.10;76.00;;;;;;4898110;29;20045;-63
2022/04/11 12:37:07;;;;;;;2.53;0.85;;;14.10;73.50;;;;;;4898044;29;20045;-63
2022/04/11 12:39:53;;;;;;;3.45;0.95;;;14.10;77.90;;;;;;4896385;29;20055;-63
2022/04/11 12:42:25;;;;;;;;;;;14.30;75.70;;;;;;4898141;29;20148;-64
2022/04/11 12:45:03;;;;;;;1.60;1.00;;;14.40;74.00;;;;;;4897853;29;19927;-63
2022/04/11 12:47:30;;;;;;;1.30;0.90;;;14.60;76.20;;;;;;4897365;29;20503;-64
2022/04/11 12:49:57;;;;;;;1.48;0.95;;;14.60;72.70;;;;;;4897263;29;20045;-63
2022/04/11 12:52:26;;;;;;;2.53;0.77;;;14.60;73.00;;;;;;4897771;29;20047;-64
2022/04/11 12:54:59;;;;;;;2.17;0.98;;;14.50;73.10;;;;;;4897405;29;20544;-64
2022/04/11 12:57:31;;;;;;;1.17;0.80;;;14.60;71.30;;;;;;4896584;29;20049;-64
2022/04/11 13:00:19;;;;;;;1.02;0.77;;;14.70;77.30;;;;;;4897206;29;20049;-64
2022/04/11 13:02:46;;;;;;;;;;;14.80;75.20;;;;;;4897876;29;20053;-64
2022/04/11 13:05:15;;;;;;;1.00;0.90;;;14.90;72.70;;;;;;4896703;29;20392;-64
2022/04/11 13:08:00;;;;;;;2.88;0.70;;;14.90;72.90;;;;;;4897385;29;20434;-64
2022/04/11 13:10:28;;;;;;;2.28;0.68;;;15.00;69.90;;;;;;4896675;29;20045;-63